virtualACA

Welcome To Vancouver International Airport CYVR

Hub Roster

Pilot Domicile Rank
Brian Kozushka - ACA1102CanadaChief Pilot
Jean-Michel Lazare - ACA2310FranceChief Pilot
Doug Fisher - ACA3285CanadaChief Pilot
Christian Parise - ACA3308CanadaNew Hire
Wil Barker - ACA3314United StatesNew Hire
Raphael Moll - ACA3325SwitzerlandNew Hire
RAOUF RIZK - ACA3332SpainNew Hire
James McLemore - ACA3341United StatesFirst Officer
Rob W - ACA3344CanadaNew Hire

Current Vatsim Weather


CYVR 172100Z 25006KT 20SM OVC026 08/06 A3047 RMK SC8 CU ASOCTD TCU TOPS SE SLP319
Vancouver International Airport